createdAt,value
2023-01-10T00:01:40.080Z,101608.53
2023-01-10T00:04:07.449Z,101618.81
2023-01-10T00:06:34.632Z,101622.63
2023-01-10T00:09:01.926Z,101621.56
2023-01-10T00:11:48.086Z,101627.03
2023-01-10T00:14:15.630Z,101637.81
2023-01-10T00:16:42.923Z,101637.72
2023-01-10T00:19:10.854Z,101636.72
2023-01-10T00:21:39.868Z,101641.97
2023-01-10T00:24:18.999Z,101631.41
2023-01-10T00:26:57.059Z,101635.66
2023-01-10T00:29:29.074Z,101631.47
2023-01-10T00:31:57.371Z,101627.16
2023-01-10T00:34:25.013Z,101625.47
2023-01-10T00:36:52.997Z,101624.56
2023-01-10T00:39:20.977Z,101622.03
2023-01-10T00:42:07.260Z,101620.38
2023-01-10T00:44:34.792Z,101629.00
2023-01-10T00:47:02.088Z,101622.13
2023-01-10T00:49:29.389Z,101629.00
2023-01-10T00:51:58.377Z,101628.16
2023-01-10T00:54:26.373Z,101626.66
2023-01-10T00:56:53.859Z,101626.66
2023-01-10T00:59:21.775Z,101631.81
2023-01-10T01:01:50.215Z,101633.47
2023-01-10T01:04:17.950Z,101639.66
2023-01-10T01:06:47.631Z,101638.72
2023-01-10T01:09:15.844Z,101642.28
2023-01-10T01:11:43.297Z,101625.16
2023-01-10T01:14:11.230Z,101626.09
2023-01-10T01:16:38.677Z,101623.44
2023-01-10T01:19:06.462Z,101631.22
2023-01-10T01:21:34.212Z,101628.03
2023-01-10T01:24:01.680Z,101640.25
2023-01-10T01:26:28.935Z,101641.13
2023-01-10T01:28:56.194Z,101646.44
2023-01-10T01:31:23.394Z,101641.28
2023-01-10T01:33:51.759Z,101639.53
2023-01-10T01:36:20.154Z,101636.88
2023-01-10T01:38:47.793Z,101640.75
2023-01-10T01:41:33.682Z,101641.59
2023-01-10T01:44:07.539Z,101634.63
2023-01-10T01:46:38.972Z,101637.75
2023-01-10T01:49:13.764Z,101639.56
2023-01-10T01:51:41.566Z,101631.72
2023-01-10T01:54:12.207Z,101625.50
2023-01-10T01:56:58.567Z,101625.59
2023-01-10T01:59:30.671Z,101624.59
2023-01-10T02:02:04.220Z,101624.75
2023-01-10T02:04:38.892Z,101626.47
2023-01-10T02:07:06.346Z,101622.22
2023-01-10T02:09:37.365Z,101620.53
2023-01-10T02:12:05.618Z,101617.31
2023-01-10T02:14:34.602Z,101619.97
2023-01-10T02:17:02.071Z,101616.66
2023-01-10T02:19:48.205Z,101611.47
2023-01-10T02:22:30.595Z,101615.97
2023-01-10T02:25:10.068Z,101613.09
2023-01-10T02:28:08.933Z,101614.09
2023-01-10T02:31:14.100Z,101615.03
2023-01-10T02:33:59.714Z,101614.50
2023-01-10T02:36:47.894Z,101620.34
2023-01-10T02:39:53.609Z,101621.13
2023-01-10T02:42:34.661Z,101622.41
2023-01-10T02:45:13.453Z,101628.38
2023-01-10T02:47:42.277Z,101619.75
2023-01-10T02:50:39.824Z,101625.28
2023-01-10T02:53:22.420Z,101623.38
2023-01-10T02:56:02.893Z,101615.44
2023-01-10T02:59:03.547Z,101614.59
2023-01-10T03:02:02.185Z,101619.16
2023-01-10T03:04:40.250Z,101615.34
2023-01-10T03:07:18.472Z,101617.56
2023-01-10T03:10:06.799Z,101619.19
2023-01-10T03:13:04.992Z,101614.13
2023-01-10T03:15:37.235Z,101610.66
2023-01-10T03:18:11.067Z,101607.31
2023-01-10T03:20:42.629Z,101606.38
2023-01-10T03:23:11.149Z,101609.72
2023-01-10T03:25:40.281Z,101609.31
2023-01-10T03:28:15.661Z,101604.09
2023-01-10T03:30:50.369Z,101599.50
2023-01-10T03:33:22.479Z,101597.13
2023-01-10T03:36:16.878Z,101588.75
2023-01-10T03:38:53.701Z,101577.56
2023-01-10T03:41:38.772Z,101579.34
2023-01-10T03:44:44.842Z,101564.00
2023-01-10T03:47:36.647Z,101578.97
2023-01-10T03:50:13.757Z,101595.31
2023-01-10T03:52:42.939Z,101596.03
2023-01-10T03:55:13.368Z,101597.75
2023-01-10T03:57:45.702Z,101591.09
2023-01-10T04:00:14.324Z,101589.81
2023-01-10T04:02:42.257Z,101595.50
2023-01-10T04:05:10.083Z,101591.06
2023-01-10T04:07:37.508Z,101574.56
2023-01-10T04:10:06.068Z,101573.09
2023-01-10T04:12:33.581Z,101568.75
2023-01-10T04:15:01.644Z,101565.97
2023-01-10T04:17:29.050Z,101559.56
2023-01-10T04:19:56.456Z,101546.78
2023-01-10T04:22:23.639Z,101542.69
2023-01-10T04:24:54.582Z,101528.91
2023-01-10T04:27:22.426Z,101504.47
2023-01-10T04:29:49.808Z,101508.94
2023-01-10T04:32:17.183Z,101510.44
2023-01-10T04:34:44.486Z,101509.75
2023-01-10T04:37:11.933Z,101499.34
2023-01-10T04:39:39.234Z,101496.81
2023-01-10T04:42:06.648Z,101488.75
2023-01-10T04:44:33.900Z,101493.97
2023-01-10T04:47:01.189Z,101495.09
2023-01-10T04:49:28.647Z,101501.09
2023-01-10T04:51:56.072Z,101496.03
2023-01-10T04:54:23.659Z,101494.97
2023-01-10T04:56:51.337Z,101484.41
2023-01-10T04:59:19.025Z,101481.03
2023-01-10T05:01:46.642Z,101466.38
2023-01-10T05:04:14.361Z,101465.81
2023-01-10T05:06:41.947Z,101474.44
2023-01-10T05:09:09.809Z,101467.56
2023-01-10T05:11:37.451Z,101472.72
2023-01-10T05:14:04.859Z,101476.88
2023-01-10T05:16:32.192Z,101486.44
2023-01-10T05:18:59.579Z,101479.53
2023-01-10T05:21:26.908Z,101466.78
2023-01-10T05:23:54.300Z,101467.53
2023-01-10T05:26:23.390Z,101465.19
2023-01-10T05:28:50.899Z,101456.78
2023-01-10T05:31:20.153Z,101462.00
2023-01-10T05:33:49.991Z,101460.16
2023-01-10T05:36:19.058Z,101452.41
2023-01-10T05:38:46.565Z,101447.19
2023-01-10T05:41:13.999Z,101445.88
2023-01-10T05:43:41.547Z,101449.47
2023-01-10T05:46:09.283Z,101442.91
2023-01-10T05:48:37.145Z,101443.50
2023-01-10T05:51:04.939Z,101433.94
2023-01-10T05:53:32.336Z,101435.88
2023-01-10T05:56:00.956Z,101427.16
2023-01-10T05:58:29.828Z,101421.09
2023-01-10T06:00:58.171Z,101418.47
2023-01-10T06:03:26.778Z,101405.56
2023-01-10T06:05:55.466Z,101398.47
2023-01-10T06:08:23.906Z,101390.97
2023-01-10T06:10:51.464Z,101391.75
2023-01-10T06:13:18.777Z,101387.38
2023-01-10T06:15:46.660Z,101377.19
2023-01-10T06:18:14.232Z,101379.81
2023-01-10T06:20:45.072Z,101382.38
2023-01-10T06:23:12.973Z,101371.19
2023-01-10T06:25:41.786Z,101372.59
2023-01-10T06:28:14.291Z,101363.44
2023-01-10T06:30:43.602Z,101368.38
2023-01-10T06:33:12.225Z,101369.16
2023-01-10T06:35:40.104Z,101368.31
2023-01-10T06:38:07.870Z,101360.13
2023-01-10T06:40:35.416Z,101348.09
2023-01-10T06:43:02.715Z,101360.22
2023-01-10T06:45:30.271Z,101343.75
2023-01-10T06:47:57.795Z,101345.56
2023-01-10T06:50:25.318Z,101349.13
2023-01-10T06:52:56.688Z,101348.09
2023-01-10T06:55:24.683Z,101338.66
2023-01-10T06:58:00.661Z,101344.59
2023-01-10T07:00:29.605Z,101336.06
2023-01-10T07:03:01.601Z,101346.44
2023-01-10T07:05:29.823Z,101343.94
2023-01-10T07:07:58.742Z,101328.59
2023-01-10T07:10:26.283Z,101342.19
2023-01-10T07:12:56.976Z,101335.28
2023-01-10T07:15:25.042Z,101343.97
2023-01-10T07:17:52.466Z,101343.34
2023-01-10T07:20:20.084Z,101336.41
2023-01-10T07:22:58.462Z,101329.63
2023-01-10T07:25:28.385Z,101327.09
2023-01-10T07:27:55.802Z,101329.59
2023-01-10T07:30:25.326Z,101330.41
2023-01-10T07:32:55.075Z,101332.22
2023-01-10T07:35:23.413Z,101327.91
2023-01-10T07:37:50.920Z,101338.56
2023-01-10T07:40:18.614Z,101331.81
2023-01-10T07:42:45.973Z,101335.25
2023-01-10T07:45:13.413Z,101344.06
2023-01-10T07:47:40.793Z,101341.72
2023-01-10T07:50:08.634Z,101338.03
2023-01-10T07:52:36.095Z,101336.34
2023-01-10T07:55:03.744Z,101335.56
2023-01-10T07:57:31.183Z,101320.13
2023-01-10T07:59:58.697Z,101323.66
2023-01-10T08:02:26.285Z,101313.16
2023-01-10T08:04:53.803Z,101325.38
2023-01-10T08:07:21.396Z,101333.13
2023-01-10T08:09:48.795Z,101315.75
2023-01-10T08:12:16.205Z,101323.47
2023-01-10T08:14:43.536Z,101317.78
2023-01-10T08:17:10.730Z,101314.50
2023-01-10T08:19:38.302Z,101313.41
2023-01-10T08:22:05.689Z,101317.13
2023-01-10T08:24:33.042Z,101307.44
2023-01-10T08:27:00.848Z,101304.06
2023-01-10T08:29:29.405Z,101301.72
2023-01-10T08:31:57.484Z,101299.09
2023-01-10T08:34:25.083Z,101301.06
2023-01-10T08:36:53.834Z,101290.63
2023-01-10T08:39:22.540Z,101279.63
2023-01-10T08:41:49.997Z,101272.78
2023-01-10T08:44:17.955Z,101270.94
2023-01-10T08:46:46.019Z,101269.13
2023-01-10T08:49:14.192Z,101277.13
2023-01-10T08:51:41.848Z,101281.59
2023-01-10T08:54:09.578Z,101277.47
2023-01-10T08:56:37.610Z,101277.47
2023-01-10T08:59:05.283Z,101275.03
2023-01-10T09:01:32.967Z,101282.09
2023-01-10T09:04:00.585Z,101277.03
2023-01-10T09:06:28.229Z,101271.88
2023-01-10T09:08:55.759Z,101277.28
2023-01-10T09:11:25.950Z,101272.09
2023-01-10T09:13:53.410Z,101266.06
2023-01-10T09:16:20.924Z,101265.25
2023-01-10T09:18:48.481Z,101271.44
2023-01-10T09:21:16.190Z,101261.84
2023-01-10T09:23:44.448Z,101266.41
2023-01-10T09:26:11.966Z,101263.00
2023-01-10T09:28:39.521Z,101267.31
2023-01-10T09:31:08.944Z,101263.81
2023-01-10T09:33:46.211Z,101268.19
2023-01-10T09:36:15.857Z,101258.84
2023-01-10T09:38:44.592Z,101267.63
2023-01-10T09:41:28.484Z,101274.63
2023-01-10T09:44:27.252Z,101265.00
2023-01-10T09:47:21.981Z,101269.50
2023-01-10T09:50:05.073Z,101264.41
2023-01-10T09:52:40.625Z,101257.44
2023-01-10T09:55:34.152Z,101266.25
2023-01-10T09:58:07.401Z,101268.91
2023-01-10T10:00:56.178Z,101268.97
2023-01-10T10:03:54.856Z,101260.31
2023-01-10T10:06:24.014Z,101264.81
2023-01-10T10:08:53.236Z,101269.22
2023-01-10T10:11:26.556Z,101268.47
2023-01-10T10:14:09.328Z,101273.72
2023-01-10T10:16:36.836Z,101266.88
2023-01-10T10:19:43.859Z,101283.47
2023-01-10T10:22:22.060Z,101277.38
2023-01-10T10:25:20.510Z,101284.38
2023-01-10T10:28:22.281Z,101285.34
2023-01-10T10:31:01.450Z,101280.22
2023-01-10T10:33:31.840Z,101286.38
2023-01-10T10:36:31.051Z,101277.81
2023-01-10T10:39:01.430Z,101277.81
2023-01-10T10:41:37.203Z,101283.97
2023-01-10T10:44:27.398Z,101277.94
2023-01-10T10:46:58.649Z,101269.31
2023-01-10T10:49:37.841Z,101275.44
2023-01-10T10:52:17.627Z,101278.94
2023-01-10T10:54:47.608Z,101266.75
2023-01-10T10:57:15.831Z,101271.16
2023-01-10T10:59:47.917Z,101272.00
2023-01-10T11:02:28.554Z,101265.94
2023-01-10T11:05:03.503Z,101253.78
2023-01-10T11:07:37.559Z,101251.19
2023-01-10T11:10:32.365Z,101251.25
2023-01-10T11:13:01.949Z,101246.03
2023-01-10T11:15:47.784Z,101245.22
2023-01-10T11:18:21.150Z,101236.50
2023-01-10T11:20:58.898Z,101226.91
2023-01-10T11:23:50.055Z,101206.00
2023-01-10T11:26:36.104Z,101210.44
2023-01-10T11:29:19.258Z,101209.63
2023-01-10T11:31:50.779Z,101214.13
2023-01-10T11:34:35.855Z,101208.91
2023-01-10T11:37:20.413Z,101206.34
2023-01-10T11:39:47.928Z,101202.84
2023-01-10T11:42:33.075Z,101199.34
2023-01-10T11:45:18.802Z,101194.91
2023-01-10T11:47:50.986Z,101194.03
2023-01-10T11:50:22.406Z,101184.41
2023-01-10T11:52:51.014Z,101180.91
2023-01-10T11:55:30.009Z,101170.34
2023-01-10T11:58:05.855Z,101169.53
2023-01-10T12:00:37.652Z,101172.13
2023-01-10T12:03:29.491Z,101166.88
2023-01-10T12:06:07.165Z,101163.44
2023-01-10T12:08:37.982Z,101163.44
2023-01-10T12:11:19.546Z,101162.56
2023-01-10T12:13:48.548Z,101161.75
2023-01-10T12:16:22.650Z,101162.63
2023-01-10T12:18:53.368Z,101155.66
2023-01-10T12:21:45.776Z,101150.44
2023-01-10T12:24:24.425Z,101149.56
2023-01-10T12:26:54.341Z,101150.50
2023-01-10T12:29:26.771Z,101149.63
2023-01-10T12:31:57.250Z,101144.38
2023-01-10T12:34:31.958Z,101135.59
2023-01-10T12:37:08.807Z,101147.88
2023-01-10T12:39:45.422Z,101137.34
2023-01-10T12:43:00.485Z,101132.97
2023-01-10T12:45:33.393Z,101118.09
2023-01-10T12:48:10.785Z,101118.97
2023-01-10T12:50:46.130Z,101115.47
2023-01-10T12:53:30.217Z,101119.84
2023-01-10T12:56:00.954Z,101116.34
2023-01-10T12:58:43.072Z,101118.97
2023-01-10T13:01:36.454Z,101121.59
2023-01-10T13:04:09.536Z,101121.56
2023-01-10T13:06:40.299Z,101110.19
2023-01-10T13:09:14.080Z,101111.97
2023-01-10T13:11:50.878Z,101125.94
2023-01-10T13:14:22.277Z,101119.81
2023-01-10T13:16:58.326Z,101114.53
2023-01-10T13:19:28.283Z,101111.91
2023-01-10T13:22:24.044Z,101103.22
2023-01-10T13:25:00.587Z,101111.91
2023-01-10T13:27:32.574Z,101097.09
2023-01-10T13:30:00.628Z,101102.34
2023-01-10T13:32:35.382Z,101090.09
2023-01-10T13:35:19.623Z,101090.09
2023-01-10T13:37:55.998Z,101076.09
2023-01-10T13:40:28.340Z,101076.97
2023-01-10T13:43:34.784Z,101077.84
2023-01-10T13:46:15.056Z,101078.72
2023-01-10T13:49:03.781Z,101076.97
2023-01-10T13:51:32.046Z,101073.47
2023-01-10T13:54:04.320Z,101076.97
2023-01-10T13:56:37.618Z,101055.09
2023-01-10T13:59:33.002Z,101065.59
2023-01-10T14:02:21.292Z,101069.09
2023-01-10T14:04:54.286Z,101063.84
2023-01-10T14:07:41.548Z,101061.22
2023-01-10T14:10:31.193Z,101048.97
2023-01-10T14:13:10.661Z,101052.47
2023-01-10T14:15:46.766Z,101048.09
2023-01-10T14:18:21.157Z,101054.22
2023-01-10T14:21:07.114Z,101054.22
2023-01-10T14:23:44.245Z,101048.97
2023-01-10T14:26:35.562Z,101035.81
2023-01-10T14:29:13.916Z,101027.09
2023-01-10T14:31:47.378Z,101025.34
2023-01-10T14:34:25.735Z,101029.72
2023-01-10T14:37:03.803Z,101027.97
2023-01-10T14:39:31.587Z,101016.63
2023-01-10T14:42:04.066Z,101034.06
2023-01-10T14:44:43.321Z,101028.84
2023-01-10T14:47:33.754Z,101020.97
2023-01-10T14:50:02.431Z,101019.22
2023-01-10T14:52:30.696Z,101020.97
2023-01-10T14:55:25.279Z,101021.84
2023-01-10T14:57:57.783Z,101015.69
2023-01-10T15:00:41.055Z,101009.59
2023-01-10T15:03:18.419Z,101008.72
2023-01-10T15:05:50.147Z,101003.47
2023-01-10T15:08:25.958Z,101014.84
2023-01-10T15:10:59.900Z,101014.84
2023-01-10T15:13:28.638Z,101009.59
2023-01-10T15:15:57.794Z,101006.97
2023-01-10T15:18:44.904Z,101025.31
2023-01-10T15:21:16.295Z,101033.16
2023-01-10T15:23:46.885Z,101014.81
2023-01-10T15:26:17.987Z,101016.56
2023-01-10T15:28:49.395Z,101010.44
2023-01-10T15:31:17.367Z,100999.94
2023-01-10T15:33:56.903Z,101001.69
2023-01-10T15:36:27.718Z,100992.06
2023-01-10T15:38:55.286Z,100985.97
2023-01-10T15:41:24.341Z,100985.97
2023-01-10T15:43:54.374Z,100985.97
2023-01-10T15:46:28.422Z,100985.97
2023-01-10T15:49:08.998Z,100987.72
2023-01-10T15:51:41.789Z,100984.22
2023-01-10T15:54:24.294Z,100975.47
2023-01-10T15:57:00.916Z,100988.59
2023-01-10T15:59:37.037Z,100983.34
2023-01-10T16:02:29.803Z,100967.56
2023-01-10T16:05:05.910Z,100971.97
2023-01-10T16:07:36.070Z,100980.69
2023-01-10T16:10:17.488Z,100971.97
2023-01-10T16:13:03.856Z,100972.81
2023-01-10T16:15:35.667Z,100967.53
2023-01-10T16:18:03.212Z,100962.31
2023-01-10T16:20:50.656Z,100957.09
2023-01-10T16:23:21.511Z,100964.91
2023-01-10T16:25:55.004Z,100961.44
2023-01-10T16:28:24.178Z,100958.78
2023-01-10T16:30:51.728Z,100954.44
2023-01-10T16:33:24.574Z,100961.41
2023-01-10T16:35:53.923Z,100959.66
2023-01-10T16:38:22.966Z,100962.28
2023-01-10T16:40:55.253Z,100953.56
2023-01-10T16:43:23.401Z,100946.56
2023-01-10T16:45:53.523Z,100953.56
2023-01-10T16:48:21.756Z,100954.44
2023-01-10T16:50:49.381Z,100954.44
2023-01-10T16:53:19.575Z,100959.66
2023-01-10T16:55:50.387Z,100964.03
2023-01-10T16:58:19.572Z,100960.53
2023-01-10T17:00:52.581Z,100973.66
2023-01-10T17:03:25.717Z,100971.03
2023-01-10T17:05:53.354Z,100964.03
2023-01-10T17:08:23.473Z,100948.31
2023-01-10T17:10:54.091Z,100960.53
2023-01-10T17:13:26.437Z,100974.53
2023-01-10T17:15:53.920Z,100960.53
2023-01-10T17:18:21.195Z,100966.66
2023-01-10T17:20:48.963Z,100960.53
2023-01-10T17:23:16.460Z,100957.91
2023-01-10T17:25:44.818Z,100946.56
2023-01-10T17:28:12.601Z,100942.16
2023-01-10T17:30:40.633Z,100939.56
2023-01-10T17:33:11.027Z,100952.63
2023-01-10T17:35:42.659Z,100948.31
2023-01-10T17:38:17.686Z,100939.56
2023-01-10T17:40:47.604Z,100937.81
2023-01-10T17:43:17.117Z,100950.06
2023-01-10T17:45:47.367Z,100936.06
2023-01-10T17:48:17.181Z,100953.56
2023-01-10T17:50:56.136Z,100938.69
2023-01-10T17:53:23.797Z,100934.31
2023-01-10T17:55:51.502Z,100929.09
2023-01-10T17:58:19.125Z,100914.22
2023-01-10T18:00:48.743Z,100920.34
2023-01-10T18:03:17.199Z,100918.59
2023-01-10T18:05:56.523Z,100917.72
2023-01-10T18:08:25.205Z,100915.09
2023-01-10T18:10:59.375Z,100898.50
2023-01-10T18:13:36.369Z,100916.84
2023-01-10T18:16:04.182Z,100920.34
2023-01-10T18:18:31.624Z,100918.59
2023-01-10T18:21:02.254Z,100921.22
2023-01-10T18:23:32.012Z,100898.50
2023-01-10T18:26:05.534Z,100910.72
2023-01-10T18:28:43.875Z,100911.59
2023-01-10T18:31:18.717Z,100895.88
2023-01-10T18:33:47.966Z,100907.22
2023-01-10T18:36:21.347Z,100911.63
2023-01-10T18:38:49.790Z,100896.78
2023-01-10T18:41:19.139Z,100907.28
2023-01-10T18:43:47.259Z,100902.91
2023-01-10T18:46:20.720Z,100909.88
2023-01-10T18:48:52.601Z,100897.69
2023-01-10T18:51:22.201Z,100888.94
2023-01-10T18:53:49.835Z,100903.78
2023-01-10T18:56:17.412Z,100897.63
2023-01-10T18:58:45.071Z,100898.53
2023-01-10T19:01:15.515Z,100896.78
2023-01-10T19:03:43.609Z,100906.34
2023-01-10T19:06:14.603Z,100888.88
2023-01-10T19:08:43.522Z,100892.38
2023-01-10T19:11:15.124Z,100885.38
2023-01-10T19:13:47.380Z,100882.78
2023-01-10T19:16:18.133Z,100884.53
2023-01-10T19:18:51.355Z,100876.66
2023-01-10T19:21:20.123Z,100869.66
2023-01-10T19:23:49.979Z,100871.38
2023-01-10T19:26:18.376Z,100879.25
2023-01-10T19:28:46.567Z,100871.38
2023-01-10T19:31:22.627Z,100860.03
2023-01-10T19:33:50.894Z,100856.53
2023-01-10T19:36:20.211Z,100872.25
2023-01-10T19:38:48.187Z,100857.41
2023-01-10T19:41:16.212Z,100850.44
2023-01-10T19:43:43.833Z,100856.53
2023-01-10T19:46:12.914Z,100853.91
2023-01-10T19:48:40.739Z,100857.41
2023-01-10T19:51:10.486Z,100844.31
2023-01-10T19:53:42.285Z,100841.66
2023-01-10T19:56:10.581Z,100825.94
2023-01-10T19:58:38.969Z,100830.31
2023-01-10T20:01:15.921Z,100832.06
2023-01-10T20:03:46.722Z,100844.28
2023-01-10T20:06:17.531Z,100840.78
2023-01-10T20:08:46.504Z,100834.66
2023-01-10T20:11:15.607Z,100836.41
2023-01-10T20:13:45.160Z,100829.44
2023-01-10T20:16:14.253Z,100827.69
2023-01-10T20:18:42.537Z,100831.19
2023-01-10T20:21:12.243Z,100836.44
2023-01-10T20:23:40.894Z,100839.91
2023-01-10T20:26:21.481Z,100841.66
2023-01-10T20:28:50.734Z,100829.44
2023-01-10T20:31:23.578Z,100822.44
2023-01-10T20:33:51.489Z,100831.19
2023-01-10T20:36:22.419Z,100816.34
2023-01-10T20:38:50.914Z,100818.94
2023-01-10T20:41:21.605Z,100825.06
2023-01-10T20:43:49.198Z,100814.59
2023-01-10T20:46:27.822Z,100817.19
2023-01-10T20:48:56.699Z,100821.56
2023-01-10T20:51:31.776Z,100814.59
2023-01-10T20:54:00.055Z,100821.56
2023-01-10T20:56:30.397Z,100814.59
2023-01-10T20:58:58.799Z,100813.72
2023-01-10T21:01:34.535Z,100814.59
2023-01-10T21:04:05.474Z,100816.31
2023-01-10T21:06:34.307Z,100813.72
2023-01-10T21:09:02.997Z,100815.47
2023-01-10T21:11:30.837Z,100816.34
2023-01-10T21:13:59.164Z,100797.13
2023-01-10T21:16:26.935Z,100817.25
2023-01-10T21:18:54.936Z,100824.19
2023-01-10T21:21:22.881Z,100807.59
2023-01-10T21:23:53.967Z,100808.47
2023-01-10T21:26:22.110Z,100801.47
2023-01-10T21:28:49.674Z,100796.25
2023-01-10T21:31:23.693Z,100807.59
2023-01-10T21:33:51.303Z,100804.09
2023-01-10T21:36:21.818Z,100798.00
2023-01-10T21:38:49.680Z,100806.72
2023-01-10T21:41:38.940Z,100780.53
2023-01-10T21:44:08.092Z,100795.38
2023-01-10T21:46:36.047Z,100779.66
2023-01-10T21:49:04.292Z,100791.00
2023-01-10T21:51:31.818Z,100785.75
2023-01-10T21:53:59.436Z,100783.13
2023-01-10T21:56:26.989Z,100778.78
2023-01-10T21:58:54.513Z,100773.53
2023-01-10T22:01:21.952Z,100773.56
2023-01-10T22:03:49.740Z,100770.06
2023-01-10T22:06:17.305Z,100770.03
2023-01-10T22:08:44.743Z,100765.69
2023-01-10T22:11:12.224Z,100760.44
2023-01-10T22:13:40.263Z,100759.56
2023-01-10T22:16:08.097Z,100751.72
2023-01-10T22:18:35.727Z,100744.75
2023-01-10T22:21:03.531Z,100746.50
2023-01-10T22:23:31.250Z,100754.34
2023-01-10T22:26:04.049Z,100749.09
2023-01-10T22:28:31.877Z,100752.59
2023-01-10T22:31:00.141Z,100754.34
2023-01-10T22:33:32.768Z,100759.56
2023-01-10T22:36:08.644Z,100747.34
2023-01-10T22:38:36.224Z,100744.72
2023-01-10T22:41:08.299Z,100747.34
2023-01-10T22:43:36.319Z,100747.34
2023-01-10T22:46:05.036Z,100758.69
2023-01-10T22:48:32.837Z,100756.06
2023-01-10T22:51:01.512Z,100762.19
2023-01-10T22:53:29.207Z,100751.69
2023-01-10T22:56:00.234Z,100746.47
2023-01-10T22:58:28.015Z,100742.09
2023-01-10T23:00:55.595Z,100753.47
2023-01-10T23:03:23.751Z,100746.47
2023-01-10T23:05:56.662Z,100747.34
2023-01-10T23:08:25.855Z,100744.72
2023-01-10T23:10:54.475Z,100751.72
2023-01-10T23:13:23.143Z,100760.44
2023-01-10T23:16:05.960Z,100755.22
2023-01-10T23:18:34.725Z,100757.81
2023-01-10T23:21:02.849Z,100754.31
2023-01-10T23:23:30.568Z,100754.31
2023-01-10T23:26:02.747Z,100760.44
2023-01-10T23:28:32.577Z,100768.28
2023-01-10T23:31:00.328Z,100772.66
2023-01-10T23:33:28.308Z,100776.16
2023-01-10T23:35:55.780Z,100772.66
2023-01-10T23:38:23.584Z,100771.78
2023-01-10T23:40:51.047Z,100775.28
2023-01-10T23:43:18.776Z,100769.16
2023-01-10T23:45:46.507Z,100771.78
2023-01-10T23:48:14.604Z,100777.91
2023-01-10T23:50:42.055Z,100772.66
2023-01-10T23:53:09.933Z,100768.28
2023-01-10T23:55:37.394Z,100772.66
2023-01-10T23:58:05.201Z,100769.16
